sensor_id;sensor_type;location;lat;lon;timestamp;P1;durP1;ratioP1;P2;durP2;ratioP2
66607;SDS011;53462;39.616;8.824;2022-08-11T00:00:00;7.22;;;4.60;;
66607;SDS011;53462;39.616;8.824;2022-08-11T00:05:01;9.73;;;4.60;;
66607;SDS011;53462;39.616;8.824;2022-08-11T00:07:30;7.95;;;4.50;;
66607;SDS011;53462;39.616;8.824;2022-08-11T00:09:57;6.65;;;5.03;;
66607;SDS011;53462;39.616;8.824;2022-08-11T00:12:24;9.10;;;5.20;;
66607;SDS011;53462;39.616;8.824;2022-08-11T00:14:58;9.35;;;5.47;;
66607;SDS011;53462;39.616;8.824;2022-08-11T00:17:26;7.75;;;5.30;;
66607;SDS011;53462;39.616;8.824;2022-08-11T00:20:01;7.57;;;5.15;;
66607;SDS011;53462;39.616;8.824;2022-08-11T00:22:35;8.02;;;5.50;;
66607;SDS011;53462;39.616;8.824;2022-08-11T00:25:08;9.68;;;5.32;;
66607;SDS011;53462;39.616;8.824;2022-08-11T00:27:36;8.07;;;5.77;;
66607;SDS011;53462;39.616;8.824;2022-08-11T00:30:04;10.32;;;6.00;;
66607;SDS011;53462;39.616;8.824;2022-08-11T00:32:37;8.77;;;5.82;;
66607;SDS011;53462;39.616;8.824;2022-08-11T00:35:06;7.03;;;5.53;;
66607;SDS011;53462;39.616;8.824;2022-08-11T00:37:35;9.43;;;5.70;;
66607;SDS011;53462;39.616;8.824;2022-08-11T00:40:03;7.60;;;5.28;;
66607;SDS011;53462;39.616;8.824;2022-08-11T00:45:31;6.65;;;5.50;;
66607;SDS011;53462;39.616;8.824;2022-08-11T00:48:06;8.18;;;5.13;;
66607;SDS011;53462;39.616;8.824;2022-08-11T00:53:25;8.63;;;5.13;;
66607;SDS011;53462;39.616;8.824;2022-08-11T00:56:10;6.57;;;5.35;;
66607;SDS011;53462;39.616;8.824;2022-08-11T01:04:55;7.43;;;5.45;;
66607;SDS011;53462;39.616;8.824;2022-08-11T01:07:40;6.60;;;5.55;;
66607;SDS011;53462;39.616;8.824;2022-08-11T01:42:47;9.90;;;6.13;;
66607;SDS011;53462;39.616;8.824;2022-08-11T01:54:01;17.80;;;8.30;;
66607;SDS011;53462;39.616;8.824;2022-08-11T01:56:52;14.13;;;7.25;;
66607;SDS011;53462;39.616;8.824;2022-08-11T01:59:30;9.80;;;7.13;;
66607;SDS011;53462;39.616;8.824;2022-08-11T02:10:57;11.85;;;7.25;;
66607;SDS011;53462;39.616;8.824;2022-08-11T02:16:54;8.95;;;6.80;;
66607;SDS011;53462;39.616;8.824;2022-08-11T03:02:06;13.43;;;8.25;;
66607;SDS011;53462;39.616;8.824;2022-08-11T03:07:40;9.68;;;7.07;;
66607;SDS011;53462;39.616;8.824;2022-08-11T03:10:50;12.65;;;7.18;;
66607;SDS011;53462;39.616;8.824;2022-08-11T03:16:40;9.07;;;6.75;;
66607;SDS011;53462;39.616;8.824;2022-08-11T03:27:13;9.55;;;7.18;;
66607;SDS011;53462;39.616;8.824;2022-08-11T03:32:40;10.68;;;7.55;;
66607;SDS011;53462;39.616;8.824;2022-08-11T03:35:30;10.65;;;7.38;;
66607;SDS011;53462;39.616;8.824;2022-08-11T03:38:12;11.80;;;7.82;;
66607;SDS011;53462;39.616;8.824;2022-08-11T03:43:46;14.65;;;8.45;;
66607;SDS011;53462;39.616;8.824;2022-08-11T04:12:17;9.32;;;6.35;;
66607;SDS011;53462;39.616;8.824;2022-08-11T04:15:07;9.45;;;6.80;;
66607;SDS011;53462;39.616;8.824;2022-08-11T04:43:20;13.63;;;8.05;;
66607;SDS011;53462;39.616;8.824;2022-08-11T04:46:14;15.70;;;7.93;;
66607;SDS011;53462;39.616;8.824;2022-08-11T05:13:27;10.68;;;8.05;;
66607;SDS011;53462;39.616;8.824;2022-08-11T05:16:12;12.02;;;7.65;;
66607;SDS011;53462;39.616;8.824;2022-08-11T05:19:01;28.05;;;8.95;;
66607;SDS011;53462;39.616;8.824;2022-08-11T05:21:52;26.52;;;7.97;;
66607;SDS011;53462;39.616;8.824;2022-08-11T05:24:41;18.00;;;7.85;;
66607;SDS011;53462;39.616;8.824;2022-08-11T05:27:37;16.27;;;7.85;;
66607;SDS011;53462;39.616;8.824;2022-08-11T05:30:27;14.77;;;7.65;;
66607;SDS011;53462;39.616;8.824;2022-08-11T05:33:23;12.68;;;7.63;;
66607;SDS011;53462;39.616;8.824;2022-08-11T05:36:48;12.48;;;7.40;;
66607;SDS011;53462;39.616;8.824;2022-08-11T05:39:19;16.20;;;7.82;;
66607;SDS011;53462;39.616;8.824;2022-08-11T05:42:09;12.07;;;7.68;;
66607;SDS011;53462;39.616;8.824;2022-08-11T05:45:03;14.05;;;7.53;;
66607;SDS011;53462;39.616;8.824;2022-08-11T05:47:56;12.65;;;6.55;;
66607;SDS011;53462;39.616;8.824;2022-08-11T05:50:48;16.95;;;7.90;;
66607;SDS011;53462;39.616;8.824;2022-08-11T05:53:45;13.13;;;6.88;;
66607;SDS011;53462;39.616;8.824;2022-08-11T05:56:32;10.32;;;7.22;;
66607;SDS011;53462;39.616;8.824;2022-08-11T05:59:05;21.10;;;7.05;;
66607;SDS011;53462;39.616;8.824;2022-08-11T06:01:39;9.82;;;6.93;;
66607;SDS011;53462;39.616;8.824;2022-08-11T06:04:07;11.10;;;7.05;;
66607;SDS011;53462;39.616;8.824;2022-08-11T06:09:34;8.77;;;6.97;;
66607;SDS011;53462;39.616;8.824;2022-08-11T06:12:28;10.40;;;6.35;;
66607;SDS011;53462;39.616;8.824;2022-08-11T06:14:57;12.80;;;6.90;;
66607;SDS011;53462;39.616;8.824;2022-08-11T06:17:27;10.82;;;6.57;;
66607;SDS011;53462;39.616;8.824;2022-08-11T06:19:58;10.02;;;6.80;;
66607;SDS011;53462;39.616;8.824;2022-08-11T06:22:27;11.10;;;6.40;;
66607;SDS011;53462;39.616;8.824;2022-08-11T06:25:00;9.75;;;6.65;;
66607;SDS011;53462;39.616;8.824;2022-08-11T06:27:29;9.80;;;6.38;;
66607;SDS011;53462;39.616;8.824;2022-08-11T06:29:58;10.00;;;6.30;;
66607;SDS011;53462;39.616;8.824;2022-08-11T06:32:26;10.57;;;6.00;;
66607;SDS011;53462;39.616;8.824;2022-08-11T06:37:29;11.38;;;5.78;;
66607;SDS011;53462;39.616;8.824;2022-08-11T06:40:25;8.43;;;5.75;;
66607;SDS011;53462;39.616;8.824;2022-08-11T06:43:40;8.52;;;5.80;;
66607;SDS011;53462;39.616;8.824;2022-08-11T06:46:31;7.95;;;5.78;;
66607;SDS011;53462;39.616;8.824;2022-08-11T06:49:03;7.75;;;5.28;;
66607;SDS011;53462;39.616;8.824;2022-08-11T06:51:51;9.70;;;5.50;;
66607;SDS011;53462;39.616;8.824;2022-08-11T06:54:23;8.43;;;5.55;;
66607;SDS011;53462;39.616;8.824;2022-08-11T06:56:50;12.00;;;5.70;;
66607;SDS011;53462;39.616;8.824;2022-08-11T06:59:35;9.38;;;6.10;;
66607;SDS011;53462;39.616;8.824;2022-08-11T07:05:00;12.82;;;6.40;;
66607;SDS011;53462;39.616;8.824;2022-08-11T07:14:07;13.27;;;5.43;;
66607;SDS011;53462;39.616;8.824;2022-08-11T07:16:53;14.60;;;5.28;;
66607;SDS011;53462;39.616;8.824;2022-08-11T07:19:23;12.02;;;6.13;;
66607;SDS011;53462;39.616;8.824;2022-08-11T07:22:10;17.02;;;5.55;;
66607;SDS011;53462;39.616;8.824;2022-08-11T07:25:06;15.65;;;5.70;;
66607;SDS011;53462;39.616;8.824;2022-08-11T07:27:57;8.57;;;5.28;;
66607;SDS011;53462;39.616;8.824;2022-08-11T07:30:48;10.35;;;5.10;;
66607;SDS011;53462;39.616;8.824;2022-08-11T07:33:18;9.50;;;5.03;;
66607;SDS011;53462;39.616;8.824;2022-08-11T07:35:51;8.75;;;4.70;;
66607;SDS011;53462;39.616;8.824;2022-08-11T07:38:24;9.05;;;5.03;;
66607;SDS011;53462;39.616;8.824;2022-08-11T07:41:08;5.15;;;3.40;;
66607;SDS011;53462;39.616;8.824;2022-08-11T07:43:41;5.50;;;3.60;;
66607;SDS011;53462;39.616;8.824;2022-08-11T07:46:13;13.95;;;4.50;;
66607;SDS011;53462;39.616;8.824;2022-08-11T07:48:59;8.63;;;4.55;;
66607;SDS011;53462;39.616;8.824;2022-08-11T07:51:46;8.07;;;4.30;;
66607;SDS011;53462;39.616;8.824;2022-08-11T07:54:32;6.03;;;4.13;;
66607;SDS011;53462;39.616;8.824;2022-08-11T07:57:00;7.40;;;4.10;;
66607;SDS011;53462;39.616;8.824;2022-08-11T07:59:46;7.97;;;4.00;;
66607;SDS011;53462;39.616;8.824;2022-08-11T08:02:37;5.47;;;3.72;;
66607;SDS011;53462;39.616;8.824;2022-08-11T08:05:23;10.50;;;4.00;;
66607;SDS011;53462;39.616;8.824;2022-08-11T08:08:08;9.30;;;3.85;;
66607;SDS011;53462;39.616;8.824;2022-08-11T08:10:53;5.70;;;3.97;;
66607;SDS011;53462;39.616;8.824;2022-08-11T08:13:40;6.90;;;3.85;;
66607;SDS011;53462;39.616;8.824;2022-08-11T08:16:25;5.88;;;3.75;;
66607;SDS011;53462;39.616;8.824;2022-08-11T08:19:12;10.77;;;4.40;;
66607;SDS011;53462;39.616;8.824;2022-08-11T08:21:40;5.10;;;3.95;;
66607;SDS011;53462;39.616;8.824;2022-08-11T08:24:07;7.80;;;4.20;;
66607;SDS011;53462;39.616;8.824;2022-08-11T08:26:34;5.47;;;3.67;;
66607;SDS011;53462;39.616;8.824;2022-08-11T08:29:21;5.03;;;3.83;;
66607;SDS011;53462;39.616;8.824;2022-08-11T08:32:06;4.80;;;3.55;;
66607;SDS011;53462;39.616;8.824;2022-08-11T08:34:38;6.05;;;3.63;;
66607;SDS011;53462;39.616;8.824;2022-08-11T08:37:07;4.30;;;3.47;;
66607;SDS011;53462;39.616;8.824;2022-08-11T08:39:33;5.05;;;3.50;;
66607;SDS011;53462;39.616;8.824;2022-08-11T08:42:11;6.10;;;3.80;;
66607;SDS011;53462;39.616;8.824;2022-08-11T08:44:42;8.07;;;3.83;;
66607;SDS011;53462;39.616;8.824;2022-08-11T08:47:13;6.85;;;3.30;;
66607;SDS011;53462;39.616;8.824;2022-08-11T08:49:48;6.10;;;3.22;;
66607;SDS011;53462;39.616;8.824;2022-08-11T08:52:19;3.70;;;3.22;;
66607;SDS011;53462;39.616;8.824;2022-08-11T08:54:48;3.55;;;3.17;;
66607;SDS011;53462;39.616;8.824;2022-08-11T08:57:19;5.30;;;3.70;;
66607;SDS011;53462;39.616;8.824;2022-08-11T08:59:47;4.70;;;3.50;;
66607;SDS011;53462;39.616;8.824;2022-08-11T09:02:15;6.65;;;3.67;;
66607;SDS011;53462;39.616;8.824;2022-08-11T09:04:45;5.97;;;3.30;;
66607;SDS011;53462;39.616;8.824;2022-08-11T09:07:14;5.75;;;3.05;;
66607;SDS011;53462;39.616;8.824;2022-08-11T09:09:43;3.47;;;3.10;;
66607;SDS011;53462;39.616;8.824;2022-08-11T09:12:15;6.45;;;3.20;;
66607;SDS011;53462;39.616;8.824;2022-08-11T09:14:45;3.47;;;3.10;;
66607;SDS011;53462;39.616;8.824;2022-08-11T09:17:30;3.38;;;3.08;;
66607;SDS011;53462;39.616;8.824;2022-08-11T09:20:08;4.43;;;3.10;;
66607;SDS011;53462;39.616;8.824;2022-08-11T09:22:43;4.10;;;2.88;;
66607;SDS011;53462;39.616;8.824;2022-08-11T09:25:30;6.05;;;3.17;;
66607;SDS011;53462;39.616;8.824;2022-08-11T09:28:16;4.70;;;2.90;;
66607;SDS011;53462;39.616;8.824;2022-08-11T09:30:46;9.93;;;3.42;;
66607;SDS011;53462;39.616;8.824;2022-08-11T09:33:19;5.80;;;3.22;;
66607;SDS011;53462;39.616;8.824;2022-08-11T09:35:50;6.82;;;3.15;;
66607;SDS011;53462;39.616;8.824;2022-08-11T09:38:17;6.32;;;3.00;;
66607;SDS011;53462;39.616;8.824;2022-08-11T09:41:06;6.18;;;3.10;;
66607;SDS011;53462;39.616;8.824;2022-08-11T09:43:43;7.18;;;3.00;;
66607;SDS011;53462;39.616;8.824;2022-08-11T09:46:30;5.82;;;2.85;;
66607;SDS011;53462;39.616;8.824;2022-08-11T09:48:58;3.88;;;3.10;;
66607;SDS011;53462;39.616;8.824;2022-08-11T09:51:30;4.30;;;2.75;;
66607;SDS011;53462;39.616;8.824;2022-08-11T09:53:58;3.38;;;2.80;;
66607;SDS011;53462;39.616;8.824;2022-08-11T09:56:27;4.38;;;2.90;;
66607;SDS011;53462;39.616;8.824;2022-08-11T09:59:12;13.15;;;3.05;;
66607;SDS011;53462;39.616;8.824;2022-08-11T10:01:44;5.03;;;3.08;;
66607;SDS011;53462;39.616;8.824;2022-08-11T10:04:17;11.98;;;3.22;;
66607;SDS011;53462;39.616;8.824;2022-08-11T10:06:59;7.80;;;3.13;;
66607;SDS011;53462;39.616;8.824;2022-08-11T10:10:12;4.68;;;2.90;;
66607;SDS011;53462;39.616;8.824;2022-08-11T10:14:43;4.35;;;2.72;;
66607;SDS011;53462;39.616;8.824;2022-08-11T10:17:32;3.70;;;2.78;;
66607;SDS011;53462;39.616;8.824;2022-08-11T10:20:00;3.50;;;2.72;;
66607;SDS011;53462;39.616;8.824;2022-08-11T10:22:28;4.35;;;2.83;;
66607;SDS011;53462;39.616;8.824;2022-08-11T10:25:14;4.80;;;2.90;;
66607;SDS011;53462;39.616;8.824;2022-08-11T10:28:00;4.63;;;2.83;;
66607;SDS011;53462;39.616;8.824;2022-08-11T10:30:28;4.63;;;3.30;;
66607;SDS011;53462;39.616;8.824;2022-08-11T10:33:13;5.40;;;2.70;;
66607;SDS011;53462;39.616;8.824;2022-08-11T10:35:59;6.43;;;2.90;;
66607;SDS011;53462;39.616;8.824;2022-08-11T10:38:26;5.63;;;3.03;;
66607;SDS011;53462;39.616;8.824;2022-08-11T10:40:54;4.40;;;2.88;;
66607;SDS011;53462;39.616;8.824;2022-08-11T10:43:39;4.03;;;2.80;;
66607;SDS011;53462;39.616;8.824;2022-08-11T10:46:07;3.53;;;3.00;;
66607;SDS011;53462;39.616;8.824;2022-08-11T10:48:53;3.72;;;2.90;;
66607;SDS011;53462;39.616;8.824;2022-08-11T10:51:21;5.43;;;3.25;;
66607;SDS011;53462;39.616;8.824;2022-08-11T10:54:07;7.68;;;3.30;;
66607;SDS011;53462;39.616;8.824;2022-08-11T10:56:52;4.07;;;2.97;;
66607;SDS011;53462;39.616;8.824;2022-08-11T10:59:38;3.92;;;3.05;;
66607;SDS011;53462;39.616;8.824;2022-08-11T11:02:08;5.60;;;3.05;;
66607;SDS011;53462;39.616;8.824;2022-08-11T11:04:57;3.67;;;2.92;;
66607;SDS011;53462;39.616;8.824;2022-08-11T11:07:34;4.05;;;3.13;;
66607;SDS011;53462;39.616;8.824;2022-08-11T11:10:04;4.07;;;2.67;;
66607;SDS011;53462;39.616;8.824;2022-08-11T11:12:35;4.45;;;2.78;;
66607;SDS011;53462;39.616;8.824;2022-08-11T11:15:28;5.00;;;2.58;;
66607;SDS011;53462;39.616;8.824;2022-08-11T11:18:21;4.32;;;2.53;;
66607;SDS011;53462;39.616;8.824;2022-08-11T11:21:10;4.07;;;2.72;;
66607;SDS011;53462;39.616;8.824;2022-08-11T11:23:48;4.85;;;2.90;;
66607;SDS011;53462;39.616;8.824;2022-08-11T11:37:22;3.95;;;3.38;;
66607;SDS011;53462;39.616;8.824;2022-08-11T11:39:48;3.53;;;3.00;;
66607;SDS011;53462;39.616;8.824;2022-08-11T11:42:16;3.90;;;2.65;;
66607;SDS011;53462;39.616;8.824;2022-08-11T11:44:43;3.28;;;2.95;;
66607;SDS011;53462;39.616;8.824;2022-08-11T11:47:11;4.13;;;2.78;;
66607;SDS011;53462;39.616;8.824;2022-08-11T11:49:40;3.53;;;2.83;;
66607;SDS011;53462;39.616;8.824;2022-08-11T11:52:08;4.68;;;2.90;;
66607;SDS011;53462;39.616;8.824;2022-08-11T11:54:39;4.60;;;3.03;;
66607;SDS011;53462;39.616;8.824;2022-08-11T11:57:06;3.30;;;3.00;;
66607;SDS011;53462;39.616;8.824;2022-08-11T11:59:51;3.95;;;2.63;;
66607;SDS011;53462;39.616;8.824;2022-08-11T12:02:38;3.67;;;2.90;;
66607;SDS011;53462;39.616;8.824;2022-08-11T12:05:06;4.05;;;2.58;;
66607;SDS011;53462;39.616;8.824;2022-08-11T12:07:34;4.75;;;2.45;;
66607;SDS011;53462;39.616;8.824;2022-08-11T12:10:20;4.15;;;3.13;;
66607;SDS011;53462;39.616;8.824;2022-08-11T12:12:47;3.10;;;2.67;;
66607;SDS011;53462;39.616;8.824;2022-08-11T12:15:32;5.13;;;2.88;;
66607;SDS011;53462;39.616;8.824;2022-08-11T12:17:59;2.95;;;2.70;;
66607;SDS011;53462;39.616;8.824;2022-08-11T12:20:26;2.85;;;2.55;;
66607;SDS011;53462;39.616;8.824;2022-08-11T12:22:53;4.53;;;2.60;;
66607;SDS011;53462;39.616;8.824;2022-08-11T12:25:39;4.38;;;2.92;;
66607;SDS011;53462;39.616;8.824;2022-08-11T12:28:25;6.07;;;2.97;;
66607;SDS011;53462;39.616;8.824;2022-08-11T12:30:51;3.90;;;2.90;;
66607;SDS011;53462;39.616;8.824;2022-08-11T12:33:18;6.85;;;2.97;;
66607;SDS011;53462;39.616;8.824;2022-08-11T12:35:45;4.40;;;3.30;;
66607;SDS011;53462;39.616;8.824;2022-08-11T12:38:13;8.05;;;3.35;;
66607;SDS011;53462;39.616;8.824;2022-08-11T12:40:40;5.97;;;2.92;;
66607;SDS011;53462;39.616;8.824;2022-08-11T12:43:26;4.18;;;3.33;;
66607;SDS011;53462;39.616;8.824;2022-08-11T12:49:11;3.65;;;3.28;;
66607;SDS011;53462;39.616;8.824;2022-08-11T12:52:01;4.03;;;3.20;;
66607;SDS011;53462;39.616;8.824;2022-08-11T12:57:27;4.50;;;3.10;;
66607;SDS011;53462;39.616;8.824;2022-08-11T13:00:31;6.20;;;3.22;;
66607;SDS011;53462;39.616;8.824;2022-08-11T13:03:17;5.25;;;3.20;;
66607;SDS011;53462;39.616;8.824;2022-08-11T13:06:03;5.15;;;3.40;;
66607;SDS011;53462;39.616;8.824;2022-08-11T13:08:32;4.57;;;3.03;;
66607;SDS011;53462;39.616;8.824;2022-08-11T13:11:01;7.28;;;3.33;;
66607;SDS011;53462;39.616;8.824;2022-08-11T13:13:47;5.28;;;2.70;;
66607;SDS011;53462;39.616;8.824;2022-08-11T13:16:14;3.90;;;2.90;;
66607;SDS011;53462;39.616;8.824;2022-08-11T13:18:41;3.35;;;3.03;;
66607;SDS011;53462;39.616;8.824;2022-08-11T13:21:12;7.72;;;3.30;;
66607;SDS011;53462;39.616;8.824;2022-08-11T13:23:39;6.25;;;2.90;;
66607;SDS011;53462;39.616;8.824;2022-08-11T13:26:06;4.78;;;3.13;;
66607;SDS011;53462;39.616;8.824;2022-08-11T13:28:34;6.80;;;3.30;;
66607;SDS011;53462;39.616;8.824;2022-08-11T13:31:01;3.97;;;3.10;;
66607;SDS011;53462;39.616;8.824;2022-08-11T13:33:39;3.67;;;3.17;;
66607;SDS011;53462;39.616;8.824;2022-08-11T13:36:07;5.55;;;3.00;;
66607;SDS011;53462;39.616;8.824;2022-08-11T13:38:34;5.25;;;3.33;;
66607;SDS011;53462;39.616;8.824;2022-08-11T13:41:01;4.47;;;3.00;;
66607;SDS011;53462;39.616;8.824;2022-08-11T13:43:48;3.67;;;3.00;;
66607;SDS011;53462;39.616;8.824;2022-08-11T13:46:16;5.18;;;2.97;;
66607;SDS011;53462;39.616;8.824;2022-08-11T13:48:44;7.53;;;3.10;;
66607;SDS011;53462;39.616;8.824;2022-08-11T13:51:12;3.58;;;2.75;;
66607;SDS011;53462;39.616;8.824;2022-08-11T13:53:57;5.22;;;2.70;;
66607;SDS011;53462;39.616;8.824;2022-08-11T13:56:26;6.45;;;2.80;;
66607;SDS011;53462;39.616;8.824;2022-08-11T13:58:53;2.70;;;2.50;;
66607;SDS011;53462;39.616;8.824;2022-08-11T14:01:22;3.92;;;2.65;;
66607;SDS011;53462;39.616;8.824;2022-08-11T14:03:51;4.35;;;2.80;;
66607;SDS011;53462;39.616;8.824;2022-08-11T14:06:18;4.35;;;2.65;;
66607;SDS011;53462;39.616;8.824;2022-08-11T14:08:46;8.02;;;2.90;;
66607;SDS011;53462;39.616;8.824;2022-08-11T14:11:13;3.85;;;2.72;;
66607;SDS011;53462;39.616;8.824;2022-08-11T14:14:00;6.20;;;2.60;;
66607;SDS011;53462;39.616;8.824;2022-08-11T14:16:29;6.05;;;2.70;;
66607;SDS011;53462;39.616;8.824;2022-08-11T14:19:00;6.43;;;3.13;;
66607;SDS011;53462;39.616;8.824;2022-08-11T14:21:34;6.45;;;2.88;;
66607;SDS011;53462;39.616;8.824;2022-08-11T14:24:20;23.25;;;3.25;;
66607;SDS011;53462;39.616;8.824;2022-08-11T14:26:47;7.82;;;2.58;;
66607;SDS011;53462;39.616;8.824;2022-08-11T14:29:19;6.95;;;2.42;;
66607;SDS011;53462;39.616;8.824;2022-08-11T14:31:50;42.78;;;3.60;;
66607;SDS011;53462;39.616;8.824;2022-08-11T14:34:20;14.57;;;2.70;;
66607;SDS011;53462;39.616;8.824;2022-08-11T14:36:50;6.22;;;2.78;;
66607;SDS011;53462;39.616;8.824;2022-08-11T14:39:26;32.47;;;4.22;;
66607;SDS011;53462;39.616;8.824;2022-08-11T14:41:54;7.05;;;2.78;;
66607;SDS011;53462;39.616;8.824;2022-08-11T14:44:44;4.93;;;2.88;;
66607;SDS011;53462;39.616;8.824;2022-08-11T14:47:34;7.22;;;3.08;;
66607;SDS011;53462;39.616;8.824;2022-08-11T14:50:03;3.42;;;2.70;;
66607;SDS011;53462;39.616;8.824;2022-08-11T14:52:32;4.03;;;2.50;;
66607;SDS011;53462;39.616;8.824;2022-08-11T14:55:01;12.88;;;2.80;;
66607;SDS011;53462;39.616;8.824;2022-08-11T14:57:47;5.18;;;2.60;;
66607;SDS011;53462;39.616;8.824;2022-08-11T15:00:15;5.75;;;2.80;;
66607;SDS011;53462;39.616;8.824;2022-08-11T15:02:43;6.20;;;2.17;;
66607;SDS011;53462;39.616;8.824;2022-08-11T15:05:30;4.05;;;2.13;;
66607;SDS011;53462;39.616;8.824;2022-08-11T15:07:57;3.75;;;1.90;;
66607;SDS011;53462;39.616;8.824;2022-08-11T15:10:24;3.20;;;2.20;;
66607;SDS011;53462;39.616;8.824;2022-08-11T15:12:51;3.17;;;1.83;;
66607;SDS011;53462;39.616;8.824;2022-08-11T15:15:18;2.72;;;2.03;;
66607;SDS011;53462;39.616;8.824;2022-08-11T15:18:05;3.92;;;2.17;;
66607;SDS011;53462;39.616;8.824;2022-08-11T15:20:32;4.57;;;2.60;;
66607;SDS011;53462;39.616;8.824;2022-08-11T15:23:16;4.35;;;2.60;;
66607;SDS011;53462;39.616;8.824;2022-08-11T15:28:37;6.70;;;2.50;;
66607;SDS011;53462;39.616;8.824;2022-08-11T15:31:27;5.50;;;2.40;;
66607;SDS011;53462;39.616;8.824;2022-08-11T15:34:07;6.15;;;2.30;;
66607;SDS011;53462;39.616;8.824;2022-08-11T15:36:56;7.55;;;2.72;;
66607;SDS011;53462;39.616;8.824;2022-08-11T15:39:50;5.32;;;2.67;;
66607;SDS011;53462;39.616;8.824;2022-08-11T15:42:56;4.63;;;2.70;;
66607;SDS011;53462;39.616;8.824;2022-08-11T15:45:46;4.65;;;2.22;;
66607;SDS011;53462;39.616;8.824;2022-08-11T15:51:01;7.53;;;2.75;;
66607;SDS011;53462;39.616;8.824;2022-08-11T15:53:42;4.55;;;2.63;;
66607;SDS011;53462;39.616;8.824;2022-08-11T15:58:50;5.38;;;2.80;;
66607;SDS011;53462;39.616;8.824;2022-08-11T16:01:37;3.80;;;2.47;;
66607;SDS011;53462;39.616;8.824;2022-08-11T16:04:24;3.30;;;2.47;;
66607;SDS011;53462;39.616;8.824;2022-08-11T16:07:10;3.78;;;2.35;;
66607;SDS011;53462;39.616;8.824;2022-08-11T16:09:39;5.03;;;2.40;;
66607;SDS011;53462;39.616;8.824;2022-08-11T16:12:18;3.40;;;2.70;;
66607;SDS011;53462;39.616;8.824;2022-08-11T16:14:48;6.85;;;2.55;;
66607;SDS011;53462;39.616;8.824;2022-08-11T16:17:45;4.60;;;2.50;;
66607;SDS011;53462;39.616;8.824;2022-08-11T16:20:18;5.60;;;2.67;;
66607;SDS011;53462;39.616;8.824;2022-08-11T16:22:48;3.13;;;2.40;;
66607;SDS011;53462;39.616;8.824;2022-08-11T16:25:18;6.80;;;2.50;;
66607;SDS011;53462;39.616;8.824;2022-08-11T16:28:05;12.57;;;2.88;;
66607;SDS011;53462;39.616;8.824;2022-08-11T16:30:35;3.05;;;2.30;;
66607;SDS011;53462;39.616;8.824;2022-08-11T16:35:34;3.20;;;2.22;;
66607;SDS011;53462;39.616;8.824;2022-08-11T16:38:21;5.10;;;2.22;;
66607;SDS011;53462;39.616;8.824;2022-08-11T16:41:00;3.72;;;2.15;;
66607;SDS011;53462;39.616;8.824;2022-08-11T16:43:38;8.10;;;2.30;;
66607;SDS011;53462;39.616;8.824;2022-08-11T16:46:25;3.45;;;2.35;;
66607;SDS011;53462;39.616;8.824;2022-08-11T16:49:20;4.43;;;2.20;;
66607;SDS011;53462;39.616;8.824;2022-08-11T16:51:51;4.13;;;2.85;;
66607;SDS011;53462;39.616;8.824;2022-08-11T16:54:18;4.68;;;2.28;;
66607;SDS011;53462;39.616;8.824;2022-08-11T16:56:53;4.13;;;2.20;;
66607;SDS011;53462;39.616;8.824;2022-08-11T16:59:25;2.95;;;2.10;;
66607;SDS011;53462;39.616;8.824;2022-08-11T17:02:04;4.20;;;2.00;;
66607;SDS011;53462;39.616;8.824;2022-08-11T17:07:29;2.25;;;1.98;;
66607;SDS011;53462;39.616;8.824;2022-08-11T17:10:16;6.00;;;2.20;;
66607;SDS011;53462;39.616;8.824;2022-08-11T17:13:04;2.80;;;2.28;;
66607;SDS011;53462;39.616;8.824;2022-08-11T17:15:47;3.63;;;2.67;;
66607;SDS011;53462;39.616;8.824;2022-08-11T17:18:32;3.28;;;2.28;;
66607;SDS011;53462;39.616;8.824;2022-08-11T17:21:13;5.85;;;2.22;;
66607;SDS011;53462;39.616;8.824;2022-08-11T17:23:40;2.72;;;1.95;;
66607;SDS011;53462;39.616;8.824;2022-08-11T17:26:15;5.68;;;2.30;;
66607;SDS011;53462;39.616;8.824;2022-08-11T17:28:42;3.47;;;1.90;;
66607;SDS011;53462;39.616;8.824;2022-08-11T17:31:10;2.95;;;2.00;;
66607;SDS011;53462;39.616;8.824;2022-08-11T17:33:57;3.25;;;1.85;;
66607;SDS011;53462;39.616;8.824;2022-08-11T17:36:44;3.10;;;2.00;;
66607;SDS011;53462;39.616;8.824;2022-08-11T17:39:10;6.13;;;2.13;;
66607;SDS011;53462;39.616;8.824;2022-08-11T17:41:38;2.25;;;1.92;;
66607;SDS011;53462;39.616;8.824;2022-08-11T17:44:23;3.00;;;1.90;;
66607;SDS011;53462;39.616;8.824;2022-08-11T17:47:09;2.25;;;2.05;;
66607;SDS011;53462;39.616;8.824;2022-08-11T17:49:55;4.05;;;2.35;;
66607;SDS011;53462;39.616;8.824;2022-08-11T17:52:23;3.95;;;2.67;;
66607;SDS011;53462;39.616;8.824;2022-08-11T17:55:08;6.28;;;2.20;;
66607;SDS011;53462;39.616;8.824;2022-08-11T17:57:54;4.00;;;2.15;;
66607;SDS011;53462;39.616;8.824;2022-08-11T18:00:39;4.35;;;2.35;;
66607;SDS011;53462;39.616;8.824;2022-08-11T18:03:06;3.42;;;2.50;;
66607;SDS011;53462;39.616;8.824;2022-08-11T18:05:51;3.33;;;2.28;;
66607;SDS011;53462;39.616;8.824;2022-08-11T18:08:18;4.57;;;2.60;;
66607;SDS011;53462;39.616;8.824;2022-08-11T18:11:04;3.60;;;2.30;;
66607;SDS011;53462;39.616;8.824;2022-08-11T18:13:51;6.43;;;2.60;;
66607;SDS011;53462;39.616;8.824;2022-08-11T18:16:38;5.45;;;2.22;;
66607;SDS011;53462;39.616;8.824;2022-08-11T18:19:22;2.60;;;2.35;;
66607;SDS011;53462;39.616;8.824;2022-08-11T18:22:11;2.63;;;2.35;;
66607;SDS011;53462;39.616;8.824;2022-08-11T18:25:08;5.07;;;2.35;;
66607;SDS011;53462;39.616;8.824;2022-08-11T18:27:58;5.10;;;2.53;;
66607;SDS011;53462;39.616;8.824;2022-08-11T18:30:47;4.25;;;2.58;;
66607;SDS011;53462;39.616;8.824;2022-08-11T18:33:42;2.85;;;2.40;;
66607;SDS011;53462;39.616;8.824;2022-08-11T18:36:46;2.57;;;2.27;;
66607;SDS011;53462;39.616;8.824;2022-08-11T18:39:35;2.97;;;2.50;;
66607;SDS011;53462;39.616;8.824;2022-08-11T18:42:27;4.80;;;2.63;;
66607;SDS011;53462;39.616;8.824;2022-08-11T18:45:15;4.50;;;2.97;;
66607;SDS011;53462;39.616;8.824;2022-08-11T18:48:03;6.72;;;2.75;;
66607;SDS011;53462;39.616;8.824;2022-08-11T18:50:54;11.63;;;2.63;;
66607;SDS011;53462;39.616;8.824;2022-08-11T18:53:43;3.10;;;2.55;;
66607;SDS011;53462;39.616;8.824;2022-08-11T18:56:33;3.17;;;2.70;;
66607;SDS011;53462;39.616;8.824;2022-08-11T18:59:19;3.20;;;2.50;;
66607;SDS011;53462;39.616;8.824;2022-08-11T19:02:08;4.20;;;2.72;;
66607;SDS011;53462;39.616;8.824;2022-08-11T19:04:55;4.93;;;2.40;;
66607;SDS011;53462;39.616;8.824;2022-08-11T19:07:42;3.58;;;2.50;;
66607;SDS011;53462;39.616;8.824;2022-08-11T19:10:28;5.28;;;2.90;;
66607;SDS011;53462;39.616;8.824;2022-08-11T19:13:14;10.18;;;3.38;;
66607;SDS011;53462;39.616;8.824;2022-08-11T19:16:00;5.15;;;2.72;;
66607;SDS011;53462;39.616;8.824;2022-08-11T19:18:46;6.60;;;2.75;;
66607;SDS011;53462;39.616;8.824;2022-08-11T19:21:33;4.03;;;2.42;;
66607;SDS011;53462;39.616;8.824;2022-08-11T19:24:19;4.28;;;2.67;;
66607;SDS011;53462;39.616;8.824;2022-08-11T19:27:06;3.78;;;2.30;;
66607;SDS011;53462;39.616;8.824;2022-08-11T19:29:51;6.25;;;2.53;;
66607;SDS011;53462;39.616;8.824;2022-08-11T19:32:37;5.15;;;2.85;;
66607;SDS011;53462;39.616;8.824;2022-08-11T19:35:23;3.80;;;2.58;;
66607;SDS011;53462;39.616;8.824;2022-08-11T19:38:09;4.35;;;2.50;;
66607;SDS011;53462;39.616;8.824;2022-08-11T19:40:54;3.13;;;2.45;;
66607;SDS011;53462;39.616;8.824;2022-08-11T19:43:42;4.55;;;2.53;;
66607;SDS011;53462;39.616;8.824;2022-08-11T19:46:28;4.00;;;2.55;;
66607;SDS011;53462;39.616;8.824;2022-08-11T19:49:15;6.03;;;2.45;;
66607;SDS011;53462;39.616;8.824;2022-08-11T19:52:01;8.13;;;2.47;;
66607;SDS011;53462;39.616;8.824;2022-08-11T19:54:47;6.05;;;2.90;;
66607;SDS011;53462;39.616;8.824;2022-08-11T19:57:33;4.82;;;2.58;;
66607;SDS011;53462;39.616;8.824;2022-08-11T20:00:21;6.18;;;2.95;;
66607;SDS011;53462;39.616;8.824;2022-08-11T20:03:10;3.30;;;2.67;;
66607;SDS011;53462;39.616;8.824;2022-08-11T20:05:56;5.18;;;2.70;;